createdAt,value
2018-12-24T00:00:04.556Z,999.13
2018-12-24T00:01:04.523Z,999.08
2018-12-24T00:02:04.513Z,999.12
2018-12-24T00:03:04.504Z,999.17
2018-12-24T00:04:04.489Z,999.20
2018-12-24T00:05:04.538Z,999.20
2018-12-24T00:06:04.469Z,999.21
2018-12-24T00:07:04.459Z,999.18
2018-12-24T00:08:04.471Z,999.24
2018-12-24T00:09:04.431Z,999.32
2018-12-24T00:10:04.425Z,999.37
2018-12-24T00:11:04.468Z,999.41
2018-12-24T00:12:07.196Z,999.37
2018-12-24T00:13:04.396Z,999.30
2018-12-24T00:14:04.377Z,999.39
2018-12-24T00:15:04.368Z,999.42
2018-12-24T00:16:04.379Z,999.43
2018-12-24T00:17:04.380Z,999.43
2018-12-24T00:18:04.330Z,999.49
2018-12-24T00:19:04.326Z,999.50
2018-12-24T00:20:04.310Z,999.49
2018-12-24T00:21:04.325Z,999.51
2018-12-24T00:22:04.288Z,999.57
2018-12-24T00:23:04.359Z,999.54
2018-12-24T00:24:04.265Z,999.60
2018-12-24T00:25:04.253Z,999.57
2018-12-24T00:26:04.241Z,999.53
2018-12-24T00:27:04.255Z,999.57
2018-12-24T00:28:04.216Z,999.64
2018-12-24T00:29:04.246Z,999.60
2018-12-24T00:30:04.198Z,999.64
2018-12-24T00:31:04.182Z,999.66
2018-12-24T00:32:04.199Z,999.69
2018-12-24T00:33:04.165Z,999.62
2018-12-24T00:34:04.157Z,999.65
2018-12-24T00:35:04.192Z,999.65
2018-12-24T00:36:04.129Z,999.72
2018-12-24T00:37:04.141Z,999.72
2018-12-24T00:38:04.109Z,999.83
2018-12-24T00:39:04.094Z,999.86
2018-12-24T00:40:04.085Z,999.95
2018-12-24T00:41:04.116Z,999.92
2018-12-24T00:42:04.084Z,999.93
2018-12-24T00:43:04.053Z,1000.00
2018-12-24T00:44:04.039Z,1000.03
2018-12-24T00:45:04.027Z,1000.07
2018-12-24T00:46:04.020Z,1000.22
2018-12-24T00:47:04.064Z,1000.25
2018-12-24T00:48:04.017Z,1000.26
2018-12-24T00:49:03.986Z,1000.30
2018-12-24T00:50:03.978Z,1000.32
2018-12-24T00:51:03.963Z,1000.34
2018-12-24T00:52:03.954Z,1000.35
2018-12-24T00:53:03.983Z,1000.41
2018-12-24T00:54:03.924Z,1000.43
2018-12-24T00:55:03.919Z,1000.44
2018-12-24T00:56:03.904Z,1000.45
2018-12-24T00:57:03.894Z,1000.45
2018-12-24T00:58:03.904Z,1000.45
2018-12-24T00:59:03.947Z,1000.47
2018-12-24T01:00:03.859Z,1000.58
2018-12-24T01:01:03.854Z,1000.64
2018-12-24T01:02:03.837Z,1000.70
2018-12-24T01:03:03.923Z,1000.75
2018-12-24T01:04:03.840Z,1000.78
2018-12-24T01:05:03.829Z,1000.80
2018-12-24T01:06:03.791Z,1000.79
2018-12-24T01:07:03.788Z,1000.78
2018-12-24T01:08:03.770Z,1000.78
2018-12-24T01:09:03.788Z,1000.85
2018-12-24T01:10:03.745Z,1000.95
2018-12-24T01:11:03.764Z,1001.00
2018-12-24T01:12:03.727Z,1001.03
2018-12-24T01:13:03.712Z,1001.03
2018-12-24T01:14:03.723Z,1001.16
2018-12-24T01:15:03.699Z,1001.18
2018-12-24T01:16:03.686Z,1001.24
2018-12-24T01:17:03.731Z,1001.22
2018-12-24T01:18:03.659Z,1001.26
2018-12-24T01:19:03.682Z,1001.36
2018-12-24T01:20:03.636Z,1001.43
2018-12-24T01:21:03.625Z,1001.39
2018-12-24T01:22:03.612Z,1001.44
2018-12-24T01:23:03.650Z,1001.43
2018-12-24T01:24:03.623Z,1001.55
2018-12-24T01:25:03.579Z,1001.50
2018-12-24T01:26:03.573Z,1001.55
2018-12-24T01:27:03.560Z,1001.62
2018-12-24T01:28:03.550Z,1001.62
2018-12-24T01:29:03.629Z,1001.57
2018-12-24T01:30:03.555Z,1001.66
2018-12-24T01:31:03.529Z,1001.70
2018-12-24T01:32:03.513Z,1001.71
2018-12-24T01:33:03.496Z,1001.74
2018-12-24T01:34:03.497Z,1001.71
2018-12-24T01:35:03.527Z,1001.74
2018-12-24T01:36:03.470Z,1001.79
2018-12-24T01:37:03.449Z,1001.84
2018-12-24T01:38:03.441Z,1001.84
2018-12-24T01:39:03.425Z,1001.85
2018-12-24T01:40:03.444Z,1001.88
2018-12-24T01:41:03.456Z,1001.92
2018-12-24T01:42:03.391Z,1001.94
2018-12-24T01:43:03.386Z,1001.97
2018-12-24T01:44:03.375Z,1002.09
2018-12-24T01:45:03.383Z,1002.10
2018-12-24T01:46:03.353Z,1002.12
2018-12-24T01:47:03.386Z,1002.13
2018-12-24T01:48:03.325Z,1002.15
2018-12-24T01:49:03.319Z,1002.20
2018-12-24T01:50:03.330Z,1002.21
2018-12-24T01:51:03.296Z,1002.24
2018-12-24T01:52:03.296Z,1002.31
2018-12-24T01:53:03.300Z,1002.29
2018-12-24T01:54:03.259Z,1002.30
2018-12-24T01:55:03.277Z,1002.31
2018-12-24T01:56:03.265Z,1002.30
2018-12-24T01:57:03.228Z,1002.37
2018-12-24T01:58:03.219Z,1002.36
2018-12-24T01:59:03.235Z,1002.34
2018-12-24T02:00:03.207Z,1002.36
2018-12-24T02:01:03.211Z,1002.36
2018-12-24T02:02:03.179Z,1002.36
2018-12-24T02:03:03.170Z,1002.36
2018-12-24T02:04:03.154Z,1002.35
2018-12-24T02:05:03.181Z,1002.42
2018-12-24T02:06:03.158Z,1002.44
2018-12-24T02:07:03.116Z,1002.39
2018-12-24T02:08:03.115Z,1002.42
2018-12-24T02:09:03.099Z,1002.46
2018-12-24T02:10:03.112Z,1002.46
2018-12-24T02:11:03.140Z,1002.47
2018-12-24T02:12:03.090Z,1002.52
2018-12-24T02:13:03.053Z,1002.46
2018-12-24T02:14:03.044Z,1002.57
2018-12-24T02:15:03.033Z,1002.64
2018-12-24T02:16:03.028Z,1002.59
2018-12-24T02:17:03.082Z,1002.62
2018-12-24T02:18:02.999Z,1002.66
2018-12-24T02:19:02.987Z,1002.69
2018-12-24T02:20:02.974Z,1002.72
2018-12-24T02:21:02.967Z,1002.80
2018-12-24T02:22:02.999Z,1002.83
2018-12-24T02:23:02.979Z,1002.81
2018-12-24T02:24:02.933Z,1002.77
2018-12-24T02:25:02.950Z,1002.87
2018-12-24T02:26:02.914Z,1002.89
2018-12-24T02:27:02.893Z,1002.88
2018-12-24T02:28:02.912Z,1002.90
2018-12-24T02:29:02.916Z,1002.89
2018-12-24T02:30:02.868Z,1002.88
2018-12-24T02:31:02.853Z,1002.89
2018-12-24T02:32:02.845Z,1002.97
2018-12-24T02:33:02.857Z,1002.95
2018-12-24T02:34:02.819Z,1002.93
2018-12-24T02:35:02.862Z,1002.99
2018-12-24T02:36:02.797Z,1002.96
2018-12-24T02:37:02.791Z,1002.99
2018-12-24T02:38:02.802Z,1002.97
2018-12-24T02:39:02.767Z,1002.96
2018-12-24T02:40:02.750Z,1003.02
2018-12-24T02:41:02.767Z,1002.97
2018-12-24T02:42:02.731Z,1003.04
2018-12-24T02:43:02.745Z,1003.05
2018-12-24T02:44:02.707Z,1003.02
2018-12-24T02:45:02.699Z,1003.07
2018-12-24T02:46:02.692Z,1003.07
2018-12-24T02:47:02.700Z,1003.10
2018-12-24T02:48:02.703Z,1003.09
2018-12-24T02:49:02.656Z,1003.16
2018-12-24T02:50:02.642Z,1003.15
2018-12-24T02:51:02.660Z,1003.19
2018-12-24T02:52:02.624Z,1003.19
2018-12-24T02:53:02.658Z,1003.23
2018-12-24T02:54:02.620Z,1003.24
2018-12-24T02:55:02.592Z,1003.28
2018-12-24T02:56:02.578Z,1003.29
2018-12-24T02:57:02.566Z,1003.33
2018-12-24T02:58:02.560Z,1003.33
2018-12-24T02:59:02.604Z,1003.34
2018-12-24T03:00:02.544Z,1003.36
2018-12-24T03:01:02.518Z,1003.34
2018-12-24T03:02:02.512Z,1003.37
2018-12-24T03:03:02.501Z,1003.40
2018-12-24T03:04:02.510Z,1003.39
2018-12-24T03:05:02.538Z,1003.44
2018-12-24T03:06:02.495Z,1003.46
2018-12-24T03:07:02.451Z,1003.51
2018-12-24T03:08:02.442Z,1003.49
2018-12-24T03:09:02.431Z,1003.58
2018-12-24T03:10:02.450Z,1003.53
2018-12-24T03:11:02.447Z,1003.61
2018-12-24T03:12:02.458Z,1003.67
2018-12-24T03:13:03.272Z,1003.62
2018-12-24T03:14:02.381Z,1003.63
2018-12-24T03:15:02.389Z,1003.66
2018-12-24T03:16:02.355Z,1003.65
2018-12-24T03:17:02.388Z,1003.69
2018-12-24T03:18:02.335Z,1003.68
2018-12-24T03:19:02.324Z,1003.68
2018-12-24T03:20:02.331Z,1003.67
2018-12-24T03:21:02.297Z,1003.66
2018-12-24T03:22:02.295Z,1003.73
2018-12-24T03:23:02.311Z,1003.75
2018-12-24T03:24:02.268Z,1003.83
2018-12-24T03:25:02.281Z,1003.85
2018-12-24T03:26:02.245Z,1003.90
2018-12-24T03:27:02.229Z,1003.93
2018-12-24T03:28:02.223Z,1003.91
2018-12-24T03:29:02.282Z,1003.96
2018-12-24T03:30:02.244Z,1003.90
2018-12-24T03:31:02.202Z,1003.95
2018-12-24T03:32:02.181Z,1003.95
2018-12-24T03:33:02.189Z,1004.01
2018-12-24T03:34:02.149Z,1003.92
2018-12-24T03:35:02.210Z,1003.98
2018-12-24T03:36:02.159Z,1004.04
2018-12-24T03:37:02.130Z,1003.96
2018-12-24T03:38:02.108Z,1003.93
2018-12-24T03:39:02.108Z,1003.93
2018-12-24T03:40:02.088Z,1003.93
2018-12-24T03:41:02.142Z,1003.98
2018-12-24T03:42:02.062Z,1004.01
2018-12-24T03:43:02.054Z,1004.02
2018-12-24T03:44:02.044Z,1003.98
2018-12-24T03:45:02.035Z,1004.06
2018-12-24T03:46:02.050Z,1004.00
2018-12-24T03:47:02.058Z,1004.05
2018-12-24T03:48:01.993Z,1004.08
2018-12-24T03:49:01.986Z,1004.09
2018-12-24T03:50:01.994Z,1004.13
2018-12-24T03:51:01.992Z,1004.13
2018-12-24T03:52:01.951Z,1004.16
2018-12-24T03:53:01.968Z,1004.10
2018-12-24T03:54:01.925Z,1004.21
2018-12-24T03:55:01.923Z,1004.19
2018-12-24T03:56:01.926Z,1004.13
2018-12-24T03:57:01.919Z,1004.13
2018-12-24T03:58:01.879Z,1004.16
2018-12-24T03:59:01.912Z,1004.22
2018-12-24T04:00:01.871Z,1004.24
2018-12-24T04:01:01.851Z,1004.26
2018-12-24T04:02:01.862Z,1004.27
2018-12-24T04:03:01.830Z,1004.23
2018-12-24T04:04:01.813Z,1004.28
2018-12-24T04:05:01.823Z,1004.36
2018-12-24T04:06:01.787Z,1004.37
2018-12-24T04:07:01.807Z,1004.39
2018-12-24T04:08:01.800Z,1004.41
2018-12-24T04:09:01.765Z,1004.49
2018-12-24T04:10:01.750Z,1004.50
2018-12-24T04:11:01.770Z,1004.51
2018-12-24T04:12:01.748Z,1004.58
2018-12-24T04:13:01.717Z,1004.57
2018-12-24T04:14:01.715Z,1004.63
2018-12-24T04:15:01.687Z,1004.64
2018-12-24T04:16:01.682Z,1004.69
2018-12-24T04:17:01.726Z,1004.71
2018-12-24T04:18:01.661Z,1004.75
2018-12-24T04:19:01.648Z,1004.75
2018-12-24T04:20:01.675Z,1004.77
2018-12-24T04:21:01.624Z,1004.78
2018-12-24T04:22:01.640Z,1004.78
2018-12-24T04:23:01.662Z,1004.73
2018-12-24T04:24:01.589Z,1004.79
2018-12-24T04:25:01.573Z,1004.88
2018-12-24T04:26:01.563Z,1004.87
2018-12-24T04:27:01.551Z,1004.93
2018-12-24T04:28:01.629Z,1004.91
2018-12-24T04:29:01.530Z,1004.92
2018-12-24T04:30:01.542Z,1004.97
2018-12-24T04:31:01.504Z,1005.00
2018-12-24T04:32:01.499Z,1005.08
2018-12-24T04:33:01.529Z,1005.04
2018-12-24T04:34:01.524Z,1005.11
2018-12-24T04:35:01.468Z,1005.06
2018-12-24T04:36:01.457Z,1005.10
2018-12-24T04:37:01.446Z,1005.11
2018-12-24T04:38:01.452Z,1005.08
2018-12-24T04:39:01.414Z,1005.10
2018-12-24T04:40:01.447Z,1005.11
2018-12-24T04:41:01.399Z,1005.10
2018-12-24T04:42:01.391Z,1005.04
2018-12-24T04:43:01.399Z,1005.06
2018-12-24T04:44:01.359Z,1005.13
2018-12-24T04:45:01.367Z,1005.10
2018-12-24T04:46:01.382Z,1005.14
2018-12-24T04:47:01.351Z,1005.11
2018-12-24T04:48:01.344Z,1005.16
2018-12-24T04:49:01.326Z,1005.18
2018-12-24T04:50:01.299Z,1005.22
2018-12-24T04:51:01.285Z,1005.24
2018-12-24T04:52:01.300Z,1005.23
2018-12-24T04:53:01.263Z,1005.22
2018-12-24T04:54:01.286Z,1005.30
2018-12-24T04:55:01.243Z,1005.28
2018-12-24T04:56:01.226Z,1005.28
2018-12-24T04:57:01.219Z,1005.40
2018-12-24T04:58:01.244Z,1005.40
2018-12-24T04:59:01.225Z,1005.38
2018-12-24T05:00:01.182Z,1005.44
2018-12-24T05:01:01.170Z,1005.49
2018-12-24T05:02:01.169Z,1005.50
2018-12-24T05:03:01.152Z,1005.56
2018-12-24T05:04:01.197Z,1005.55
2018-12-24T05:05:01.128Z,1005.61
2018-12-24T05:06:01.112Z,1005.65
2018-12-24T05:07:01.110Z,1005.67
2018-12-24T05:08:01.136Z,1005.78
2018-12-24T05:09:01.085Z,1005.77
2018-12-24T05:10:01.125Z,1005.82
2018-12-24T05:11:01.056Z,1005.83
2018-12-24T05:12:01.043Z,1005.85
2018-12-24T05:13:01.038Z,1005.86
2018-12-24T05:14:01.025Z,1005.90
2018-12-24T05:15:01.037Z,1005.96
2018-12-24T05:16:01.031Z,1005.99
2018-12-24T05:17:00.993Z,1006.05
2018-12-24T05:18:00.984Z,1006.10
2018-12-24T05:19:00.967Z,1006.15
2018-12-24T05:20:00.981Z,1006.16
2018-12-24T05:21:00.946Z,1006.23
2018-12-24T05:22:00.952Z,1006.24
2018-12-24T05:23:00.921Z,1006.22
2018-12-24T05:24:00.908Z,1006.25
2018-12-24T05:25:00.925Z,1006.22
2018-12-24T05:26:00.886Z,1006.27
2018-12-24T05:27:00.874Z,1006.21
2018-12-24T05:28:00.926Z,1006.28
2018-12-24T05:29:00.851Z,1006.35
2018-12-24T05:30:00.842Z,1006.38
2018-12-24T05:31:00.860Z,1006.44
2018-12-24T05:32:00.816Z,1006.46
2018-12-24T05:33:00.809Z,1006.48
2018-12-24T05:34:00.818Z,1006.48
2018-12-24T05:35:00.784Z,1006.52
2018-12-24T05:36:00.806Z,1006.57
2018-12-24T05:37:00.768Z,1006.58
2018-12-24T05:38:00.750Z,1006.61
2018-12-24T05:39:00.739Z,1006.70
2018-12-24T05:40:00.756Z,1006.65
2018-12-24T05:41:00.745Z,1006.66
2018-12-24T05:42:00.708Z,1006.66
2018-12-24T05:43:00.695Z,1006.66
2018-12-24T05:44:00.682Z,1006.70
2018-12-24T05:45:00.673Z,1006.73
2018-12-24T05:46:00.710Z,1006.70
2018-12-24T05:47:00.652Z,1006.70
2018-12-24T05:48:00.641Z,1006.74
2018-12-24T05:49:00.651Z,1006.76
2018-12-24T05:50:00.618Z,1006.82
2018-12-24T05:51:00.629Z,1006.82
2018-12-24T05:52:00.620Z,1006.84
2018-12-24T05:53:00.582Z,1006.86
2018-12-24T05:54:00.573Z,1006.87
2018-12-24T05:55:00.557Z,1006.93
2018-12-24T05:56:00.576Z,1006.91
2018-12-24T05:57:00.566Z,1006.94
2018-12-24T05:58:00.528Z,1006.94
2018-12-24T05:59:00.542Z,1006.96
2018-12-24T06:00:00.522Z,1007.00
2018-12-24T06:01:00.494Z,1007.03
2018-12-24T06:02:00.508Z,1007.10
2018-12-24T06:03:00.501Z,1007.06
2018-12-24T06:04:00.455Z,1007.11
2018-12-24T06:05:00.452Z,1007.12
2018-12-24T06:06:00.438Z,1007.16
2018-12-24T06:07:00.455Z,1007.13
2018-12-24T06:08:00.414Z,1007.21
2018-12-24T06:09:00.422Z,1007.23
2018-12-24T06:10:00.395Z,1007.29
2018-12-24T06:11:00.379Z,1007.26
2018-12-24T06:12:00.397Z,1007.30
2018-12-24T06:13:00.363Z,1007.28
2018-12-24T06:14:00.361Z,1007.27
2018-12-24T06:15:00.353Z,1007.37
2018-12-24T06:16:00.322Z,1007.42
2018-12-24T06:17:00.339Z,1007.45
2018-12-24T06:18:00.302Z,1007.44
2018-12-24T06:19:00.315Z,1007.43
2018-12-24T06:20:00.278Z,1007.47
2018-12-24T06:21:00.303Z,1007.48
2018-12-24T06:22:00.255Z,1007.54
2018-12-24T06:23:00.273Z,1007.59
2018-12-24T06:24:00.237Z,1007.56
2018-12-24T06:25:00.220Z,1007.65
2018-12-24T06:26:00.213Z,1007.68
2018-12-24T06:27:00.226Z,1007.69
2018-12-24T06:28:00.237Z,1007.72
2018-12-24T06:29:00.173Z,1007.74
2018-12-24T06:30:00.175Z,1007.76
2018-12-24T06:31:00.155Z,1007.81
2018-12-24T06:32:00.143Z,1007.85
2018-12-24T06:33:00.176Z,1007.78
2018-12-24T06:34:00.118Z,1007.86
2018-12-24T06:35:00.146Z,1007.87
2018-12-24T06:36:00.097Z,1007.89
2018-12-24T06:37:00.088Z,1007.92
2018-12-24T06:38:00.095Z,1007.96
2018-12-24T06:39:00.118Z,1008.01
2018-12-24T06:40:00.077Z,1007.99
2018-12-24T06:41:00.069Z,1008.03
2018-12-24T06:42:00.031Z,1008.00
2018-12-24T06:43:00.019Z,1008.07
2018-12-24T06:44:06.670Z,1008.10
2018-12-24T06:45:01.026Z,1008.15
2018-12-24T06:45:59.979Z,1008.16
2018-12-24T06:46:59.973Z,1008.16
2018-12-24T06:47:59.961Z,1008.12
2018-12-24T06:48:59.971Z,1008.11
2018-12-24T06:49:59.939Z,1008.16
2018-12-24T06:50:59.966Z,1008.20
2018-12-24T06:51:59.917Z,1008.21
2018-12-24T06:52:59.903Z,1008.18
2018-12-24T06:53:59.917Z,1008.22
2018-12-24T06:54:59.885Z,1008.19
2018-12-24T06:55:59.870Z,1008.26
2018-12-24T06:56:59.893Z,1008.29
2018-12-24T06:57:59.844Z,1008.34
2018-12-24T06:58:59.858Z,1008.35
2018-12-24T06:59:59.846Z,1008.36
2018-12-24T07:00:59.813Z,1008.32
2018-12-24T07:01:59.803Z,1008.29
2018-12-24T07:02:59.821Z,1008.36
2018-12-24T07:03:59.777Z,1008.37
2018-12-24T07:04:59.805Z,1008.42
2018-12-24T07:05:59.759Z,1008.40
2018-12-24T07:06:59.747Z,1008.42
2018-12-24T07:07:59.740Z,1008.48
2018-12-24T07:08:59.752Z,1008.50
2018-12-24T07:09:59.733Z,1008.46
2018-12-24T07:10:59.706Z,1008.44
2018-12-24T07:11:59.691Z,1008.50
2018-12-24T07:12:59.680Z,1008.51
2018-12-24T07:13:59.692Z,1008.55
2018-12-24T07:14:59.685Z,1008.63
2018-12-24T07:15:59.641Z,1008.65
2018-12-24T07:16:59.634Z,1008.65
2018-12-24T07:17:59.620Z,1008.67
2018-12-24T07:18:59.607Z,1008.63
2018-12-24T07:19:59.658Z,1008.70
2018-12-24T07:20:59.586Z,1008.73
2018-12-24T07:21:59.631Z,1008.72
2018-12-24T07:22:59.571Z,1008.79
2018-12-24T07:23:59.555Z,1008.79
2018-12-24T07:24:59.544Z,1008.78
2018-12-24T07:25:59.567Z,1008.83
2018-12-24T07:26:59.547Z,1008.86
2018-12-24T07:27:59.510Z,1008.88
2018-12-24T07:28:59.503Z,1008.88
2018-12-24T07:29:59.485Z,1008.92
2018-12-24T07:30:59.498Z,1008.88
2018-12-24T07:31:59.466Z,1008.97
2018-12-24T07:32:59.476Z,1008.93
2018-12-24T07:33:59.440Z,1008.97
2018-12-24T07:34:59.435Z,1008.96
2018-12-24T07:35:59.449Z,1008.98
2018-12-24T07:36:59.406Z,1008.99
2018-12-24T07:37:59.399Z,1008.97
2018-12-24T07:38:59.410Z,1009.03
2018-12-24T07:39:59.379Z,1009.05
2018-12-24T07:40:59.367Z,1009.04
2018-12-24T07:41:59.374Z,1009.09
2018-12-24T07:42:59.340Z,1009.12
2018-12-24T07:43:59.326Z,1009.15
2018-12-24T07:44:59.334Z,1009.18
2018-12-24T07:45:59.303Z,1009.18
2018-12-24T07:46:59.321Z,1009.22
2018-12-24T07:47:59.281Z,1009.21
2018-12-24T07:48:59.274Z,1009.26
2018-12-24T07:49:59.260Z,1009.26
2018-12-24T07:50:59.270Z,1009.28
2018-12-24T07:51:59.266Z,1009.26
2018-12-24T07:52:59.225Z,1009.27
2018-12-24T07:53:59.214Z,1009.22
2018-12-24T07:54:59.206Z,1009.29
2018-12-24T07:55:59.196Z,1009.26
2018-12-24T07:56:59.278Z,1009.29
2018-12-24T07:57:59.170Z,1009.33
2018-12-24T07:58:59.160Z,1009.33
2018-12-24T07:59:59.149Z,1009.32
2018-12-24T08:00:59.136Z,1009.38
2018-12-24T08:01:59.127Z,1009.37
2018-12-24T08:02:59.164Z,1009.38
2018-12-24T08:03:59.105Z,1009.41
2018-12-24T08:04:59.095Z,1009.42
2018-12-24T08:05:59.079Z,1009.39
2018-12-24T08:06:59.069Z,1009.44
2018-12-24T08:07:59.081Z,1009.45
2018-12-24T08:08:59.066Z,1009.48
2018-12-24T08:09:59.036Z,1009.51
2018-12-24T08:10:59.025Z,1009.50
2018-12-24T08:11:59.019Z,1009.50
2018-12-24T08:12:59.026Z,1009.52
2018-12-24T08:13:58.988Z,1009.54
2018-12-24T08:14:58.991Z,1009.55
2018-12-24T08:15:58.978Z,1009.59
2018-12-24T08:16:58.971Z,1009.61
2018-12-24T08:17:58.942Z,1009.58
2018-12-24T08:18:58.954Z,1009.55
2018-12-24T08:19:58.920Z,1009.56
2018-12-24T08:20:58.909Z,1009.53
2018-12-24T08:21:58.896Z,1009.59
2018-12-24T08:22:58.914Z,1009.56
2018-12-24T08:23:58.898Z,1009.59
2018-12-24T08:24:58.865Z,1009.70
2018-12-24T08:25:58.851Z,1009.66
2018-12-24T08:26:58.843Z,1009.71
2018-12-24T08:27:58.834Z,1009.71
2018-12-24T08:28:58.866Z,1009.67
2018-12-24T08:29:58.808Z,1009.75
2018-12-24T08:30:58.801Z,1009.77
2018-12-24T08:31:58.790Z,1009.85
2018-12-24T08:32:58.775Z,1009.88
2018-12-24T08:33:58.792Z,1009.82
2018-12-24T08:34:58.799Z,1009.90
2018-12-24T08:35:58.742Z,1009.92
2018-12-24T08:36:58.730Z,1009.94
2018-12-24T08:37:58.720Z,1009.94
2018-12-24T08:38:58.708Z,1009.98
2018-12-24T08:39:58.720Z,1010.06
2018-12-24T08:40:58.695Z,1010.07
2018-12-24T08:41:58.705Z,1010.07
2018-12-24T08:42:58.663Z,1010.13
2018-12-24T08:43:58.649Z,1010.11
2018-12-24T08:44:58.666Z,1010.10
2018-12-24T08:45:58.634Z,1010.15
2018-12-24T08:46:58.638Z,1010.14
2018-12-24T08:47:58.604Z,1010.19
2018-12-24T08:48:58.594Z,1010.16
2018-12-24T08:49:58.606Z,1010.22
2018-12-24T08:50:58.571Z,1010.29
2018-12-24T08:51:58.562Z,1010.34
2018-12-24T08:52:58.575Z,1010.34
2018-12-24T08:53:58.540Z,1010.42
2018-12-24T08:54:58.554Z,1010.40
2018-12-24T08:55:58.518Z,1010.46
2018-12-24T08:56:58.504Z,1010.47
2018-12-24T08:57:58.493Z,1010.52
2018-12-24T08:58:58.494Z,1010.51
2018-12-24T08:59:58.501Z,1010.60
2018-12-24T09:00:58.484Z,1010.57
2018-12-24T09:01:58.455Z,1010.63
2018-12-24T09:02:58.434Z,1010.66
2018-12-24T09:03:58.427Z,1010.72
2018-12-24T09:04:58.433Z,1010.69
2018-12-24T09:05:58.447Z,1010.74
2018-12-24T09:06:58.399Z,1010.71
2018-12-24T09:07:58.380Z,1010.77
2018-12-24T09:08:58.371Z,1010.77
2018-12-24T09:09:58.357Z,1010.80
2018-12-24T09:10:58.375Z,1010.78
2018-12-24T09:11:58.354Z,1010.82
2018-12-24T09:12:58.327Z,1010.85
2018-12-24T09:13:58.312Z,1010.90
2018-12-24T09:14:58.305Z,1010.91
2018-12-24T09:15:58.314Z,1010.89
2018-12-24T09:16:58.280Z,1010.87
2018-12-24T09:17:58.285Z,1010.94
2018-12-24T09:18:58.283Z,1011.00
2018-12-24T09:19:58.276Z,1011.00
2018-12-24T09:20:58.239Z,1011.02
2018-12-24T09:21:58.245Z,1011.07
2018-12-24T09:22:58.211Z,1011.09
2018-12-24T09:23:58.204Z,1011.12
2018-12-24T09:24:58.213Z,1011.18
2018-12-24T09:25:58.176Z,1011.19
2018-12-24T09:26:58.194Z,1011.25
2018-12-24T09:27:58.158Z,1011.22
2018-12-24T09:28:58.147Z,1011.28
2018-12-24T09:29:58.133Z,1011.23
2018-12-24T09:30:58.139Z,1011.25
2018-12-24T09:31:58.160Z,1011.29
2018-12-24T09:32:58.096Z,1011.26
2018-12-24T09:33:58.087Z,1011.27
2018-12-24T09:34:58.073Z,1011.29
2018-12-24T09:35:58.089Z,1011.34
2018-12-24T09:36:58.057Z,1011.34
2018-12-24T09:37:58.077Z,1011.33
2018-12-24T09:38:58.057Z,1011.34
2018-12-24T09:39:58.019Z,1011.40
2018-12-24T09:40:58.007Z,1011.45
2018-12-24T09:41:57.997Z,1011.51
2018-12-24T09:42:58.008Z,1011.49
2018-12-24T09:43:57.973Z,1011.50
2018-12-24T09:44:59.019Z,1011.49
2018-12-24T09:45:57.961Z,1011.55
2018-12-24T09:46:57.945Z,1011.60
2018-12-24T09:47:57.994Z,1011.57
2018-12-24T09:48:57.931Z,1011.64
2018-12-24T09:49:57.919Z,1011.58
2018-12-24T09:50:57.912Z,1011.63
2018-12-24T09:51:57.898Z,1011.72
2018-12-24T09:52:57.924Z,1011.76
2018-12-24T09:53:57.862Z,1011.75
2018-12-24T09:54:57.862Z,1011.81
2018-12-24T09:55:57.855Z,1011.81
2018-12-24T09:56:57.852Z,1011.77
2018-12-24T09:57:57.814Z,1011.77
2018-12-24T09:58:57.845Z,1011.79
2018-12-24T09:59:57.806Z,1011.82
2018-12-24T10:00:57.842Z,1011.85
2018-12-24T10:01:57.785Z,1011.87
2018-12-24T10:02:57.973Z,1011.91
2018-12-24T10:04:02.860Z,1011.95
2018-12-24T10:04:59.750Z,1011.96
2018-12-24T10:05:57.726Z,1011.98
2018-12-24T10:06:57.718Z,1011.98
2018-12-24T10:07:57.707Z,1011.96
2018-12-24T10:08:57.784Z,1011.99
2018-12-24T10:09:57.702Z,1012.02
2018-12-24T10:10:57.679Z,1012.01
2018-12-24T10:11:57.675Z,1012.07
2018-12-24T10:12:57.652Z,1012.07
2018-12-24T10:13:57.677Z,1012.05
2018-12-24T10:14:57.639Z,1012.08
2018-12-24T10:15:57.618Z,1012.09
2018-12-24T10:16:57.616Z,1012.12
2018-12-24T10:17:57.598Z,1012.13
2018-12-24T10:18:57.605Z,1012.15
2018-12-24T10:19:57.604Z,1012.16
2018-12-24T10:20:57.573Z,1012.18
2018-12-24T10:21:57.550Z,1012.16
2018-12-24T10:22:57.557Z,1012.16
2018-12-24T10:23:57.544Z,1012.11
2018-12-24T10:24:57.545Z,1012.10
2018-12-24T10:25:57.513Z,1012.16
2018-12-24T10:26:57.499Z,1012.15
2018-12-24T10:27:57.492Z,1012.20
2018-12-24T10:28:57.474Z,1012.17
2018-12-24T10:29:57.525Z,1012.21
2018-12-24T10:30:57.463Z,1012.19
2018-12-24T10:31:57.441Z,1012.25
2018-12-24T10:32:57.435Z,1012.27
2018-12-24T10:33:57.454Z,1012.21
2018-12-24T10:34:57.421Z,1012.32
2018-12-24T10:35:57.435Z,1012.26
2018-12-24T10:36:57.391Z,1012.26
2018-12-24T10:37:57.369Z,1012.31
2018-12-24T10:38:57.375Z,1012.30
2018-12-24T10:39:57.365Z,1012.29
2018-12-24T10:40:57.360Z,1012.29
2018-12-24T10:41:57.326Z,1012.30
2018-12-24T10:42:57.333Z,1012.31
2018-12-24T10:43:57.303Z,1012.24
2018-12-24T10:44:57.297Z,1012.34
2018-12-24T10:45:57.309Z,1012.25
2018-12-24T10:46:58.473Z,1012.31
2018-12-24T10:47:57.266Z,1012.27
2018-12-24T10:48:57.258Z,1012.25
2018-12-24T10:49:57.356Z,1012.27
2018-12-24T10:50:57.281Z,1012.22
2018-12-24T10:51:57.220Z,1012.20
2018-12-24T10:52:57.208Z,1012.20
2018-12-24T10:53:57.194Z,1012.23
2018-12-24T10:54:57.215Z,1012.23
2018-12-24T10:55:57.200Z,1012.23
2018-12-24T10:56:57.174Z,1012.32
2018-12-24T10:57:57.159Z,1012.31
2018-12-24T10:58:57.138Z,1012.31
2018-12-24T10:59:57.138Z,1012.31
2018-12-24T11:00:57.149Z,1012.41
2018-12-24T11:01:57.115Z,1012.36
2018-12-24T11:02:57.096Z,1012.38
2018-12-24T11:03:57.099Z,1012.38
2018-12-24T11:04:57.101Z,1012.38
2018-12-24T11:05:57.075Z,1012.38
2018-12-24T11:06:57.083Z,1012.36
2018-12-24T11:07:57.083Z,1012.38
2018-12-24T11:08:57.031Z,1012.36
2018-12-24T11:09:57.028Z,1012.31
2018-12-24T11:10:57.014Z,1012.35
2018-12-24T11:11:57.031Z,1012.38
2018-12-24T11:12:56.994Z,1012.36
2018-12-24T11:13:56.990Z,1012.38
2018-12-24T11:14:56.969Z,1012.40
2018-12-24T11:15:56.963Z,1012.39
2018-12-24T11:16:56.983Z,1012.35
2018-12-24T11:17:56.939Z,1012.35
2018-12-24T11:18:56.921Z,1012.37
2018-12-24T11:19:56.973Z,1012.38
2018-12-24T11:20:56.898Z,1012.37
2018-12-24T11:21:56.888Z,1012.35
2018-12-24T11:22:56.897Z,1012.37
2018-12-24T11:23:56.867Z,1012.42
2018-12-24T11:24:56.856Z,1012.41
2018-12-24T11:25:56.880Z,1012.40
2018-12-24T11:26:56.879Z,1012.35
2018-12-24T11:27:56.846Z,1012.32
2018-12-24T11:28:56.811Z,1012.34
2018-12-24T11:29:56.848Z,1012.35
2018-12-24T11:30:56.792Z,1012.36
2018-12-24T11:31:56.780Z,1012.40
2018-12-24T11:32:56.803Z,1012.41
2018-12-24T11:33:56.749Z,1012.41
2018-12-24T11:34:56.746Z,1012.40
2018-12-24T11:35:56.736Z,1012.41
2018-12-24T11:36:56.738Z,1012.41
2018-12-24T11:37:56.728Z,1012.47
2018-12-24T11:38:56.689Z,1012.44
2018-12-24T11:39:56.698Z,1012.50
2018-12-24T11:40:56.685Z,1012.52
2018-12-24T11:41:56.677Z,1012.57
2018-12-24T11:42:56.747Z,1012.53
2018-12-24T11:43:56.688Z,1012.56
2018-12-24T11:44:56.635Z,1012.56
2018-12-24T11:45:56.615Z,1012.51
2018-12-24T11:46:56.614Z,1012.51
2018-12-24T11:47:56.628Z,1012.45
2018-12-24T11:48:56.597Z,1012.44
2018-12-24T11:49:56.590Z,1012.43
2018-12-24T11:50:56.599Z,1012.43
2018-12-24T11:51:56.550Z,1012.45
2018-12-24T11:52:56.537Z,1012.47
2018-12-24T11:53:56.560Z,1012.43
2018-12-24T11:54:56.572Z,1012.46
2018-12-24T11:55:56.527Z,1012.38
2018-12-24T11:56:56.505Z,1012.40
2018-12-24T11:57:56.493Z,1012.40
2018-12-24T11:58:56.508Z,1012.38
2018-12-24T11:59:56.462Z,1012.39
2018-12-24T12:00:56.491Z,1012.37
2018-12-24T12:01:56.450Z,1012.42
2018-12-24T12:02:56.447Z,1012.46
2018-12-24T12:03:56.438Z,1012.43
2018-12-24T12:04:56.411Z,1012.43
2018-12-24T12:05:56.438Z,1012.47
2018-12-24T12:06:56.389Z,1012.52